Borgloon, Belgium
Current Conditions -  °F | °C
As of 11:20 PM on Tuesday 21 Oct 2014 (Local Time) from EBLG Reporting Station
Broken Clouds Broken Clouds  
Wind Chill: 40°   Ceiling: 4400
Heat Index: 46°   Visibility: 6mi
Dew Point: 39°   Wind: 16mph
Humidity: 76%   Direction: 270°W
Pressure: 29.85"   Gusts: NA
Location:  50.81°N, 5.34°E
Report Text: EBLG 212120Z 27014KT 9999 FEW030 BKN044 08/04 Q1011 TEMPO 4000 SHRA
Loading
Personal Weather Stations






























Interactive Weather Map
Tropical Storm Tracking
New forecast layout! Learn more

10-Day Weather Forecast

Advertisements
Track Severe Weather on mobile